Time;durP1;ratioP1;P1;durP2;ratioP2;P2;SDS_P1;SDS_P2;PMS_P1;PMS_P2;Temp;Humidity;BMP_temperature;BMP_pressure;BME280_temperature;BME280_humidity;BME280_pressure;Samples;Min_cycle;Max_cycle;Signal;HPM_P1;HPM_P2
2021/07/21 00:00:55;;;;;;;24.05;16.98;;;21.30;99.90;;;21.76;66.98;102137.28;4921297;29;20044;-67
2021/07/21 00:03:24;;;;;;;22.73;16.42;;;21.30;99.90;;;21.77;66.92;102148.03;4938497;29;20074;-67
2021/07/21 00:05:53;;;;;;;22.00;16.80;;;21.30;99.90;;;21.75;66.81;102146.31;4921261;29;20134;-67
2021/07/21 00:08:21;;;;;;;23.90;16.13;;;21.30;99.90;;;21.72;66.77;102136.50;4938331;29;20099;-67
2021/07/21 00:13:26;;;;;;;19.48;16.20;;;21.30;99.90;;;21.68;66.52;102148.28;4938275;29;20051;-66
2021/07/21 00:13:37;;;;;;;21.63;16.05;;;21.30;99.90;;;21.75;66.70;102146.31;4938463;29;20070;-66
2021/07/21 00:16:15;;;;;;;25.23;16.92;;;21.30;99.90;;;21.76;66.75;102143.56;4938170;29;20051;-67
2021/07/21 00:18:53;;;;;;;23.63;16.65;;;21.30;99.90;;;21.81;66.63;102147.03;4938327;29;20494;-66
2021/07/21 00:21:26;;;;;;;23.58;16.42;;;21.30;99.90;;;21.83;66.27;102144.28;4938059;29;20048;-66
2021/07/21 00:23:55;;;;;;;24.65;16.98;;;21.40;99.90;;;21.90;66.15;102141.38;4938140;29;20119;-66
2021/07/21 00:26:23;;;;;;;32.30;17.05;;;21.40;99.90;;;21.90;66.01;102144.06;4937911;29;20056;-66
2021/07/21 00:28:52;;;;;;;24.65;16.55;;;21.40;99.90;;;21.89;65.96;102136.03;4937904;29;20082;-66
2021/07/21 00:31:21;;;;;;;21.88;17.67;;;21.40;99.90;;;21.95;65.88;102141.22;4920779;29;20099;-67
2021/07/21 00:33:50;;;;;;;27.15;17.20;;;21.50;99.90;;;21.94;65.77;102145.72;4920716;29;20082;-66
2021/07/21 00:36:18;;;;;;;23.48;17.50;;;21.50;99.90;;;21.93;65.89;102141.25;4937320;29;20043;-67
2021/07/21 00:38:47;;;;;;;24.10;16.58;;;21.50;99.90;;;21.91;65.85;102136.88;4937432;29;20501;-66
2021/07/21 00:41:18;;;;;;;;;;;21.40;99.90;;;21.90;65.50;102141.38;4938086;29;20079;-66
2021/07/21 00:43:51;;;;;;;24.15;18.23;;;21.50;99.90;;;21.89;65.87;102134.19;4937757;29;19923;-67
2021/07/21 00:46:21;;;;;;;26.08;18.00;;;21.40;99.90;;;21.89;65.63;102111.78;4937662;29;20051;-66
2021/07/21 00:48:50;;;;;;;24.15;18.02;;;21.50;99.90;;;22.00;65.39;102136.56;4937628;29;20047;-67
2021/07/21 00:51:19;;;;;;;22.83;17.63;;;21.50;99.90;;;21.77;65.81;102112.13;4920425;29;20106;-67
2021/07/21 00:53:48;;;;;;;23.53;16.67;;;21.50;99.90;;;21.77;66.55;102142.63;4937482;29;20087;-67
2021/07/21 00:56:20;;;;;;;26.23;17.52;;;21.30;99.90;;;21.71;66.33;102133.84;4920652;29;20304;-67
2021/07/21 00:58:53;;;;;;;25.30;16.98;;;21.30;99.90;;;21.64;67.11;102132.28;4920357;29;20079;-67
2021/07/21 01:01:23;;;;;;;22.50;16.33;;;21.20;99.90;;;21.55;68.15;102134.31;4937604;29;20082;-67
2021/07/21 01:03:53;;;;;;;22.35;16.05;;;21.00;99.90;;;21.50;69.14;102138.06;4920010;29;20150;-67
2021/07/21 01:06:24;;;;;;;18.45;14.52;;;21.00;99.90;;;21.43;70.09;102126.59;4920160;29;20043;-67
2021/07/21 01:08:53;;;;;;;16.42;12.63;;;20.90;99.90;;;21.30;71.00;102129.69;4919918;29;20051;-67
2021/07/21 01:11:33;;;;;;;16.80;13.38;;;20.80;99.90;;;21.44;70.45;102133.75;4920076;29;20054;-67
2021/07/21 01:14:13;;;;;;;13.40;11.38;;;20.80;99.90;;;21.13;70.12;102113.13;4937170;29;20501;-67
2021/07/21 01:16:49;;;;;;;16.33;11.48;;;20.80;99.90;;;21.07;70.03;102140.19;4919933;29;20055;-67
2021/07/21 01:19:24;;;;;;;16.98;12.82;;;20.60;99.90;;;20.96;70.25;102134.19;4919804;29;20110;-66
2021/07/21 01:22:16;;;;;;;17.98;13.02;;;20.50;99.90;;;20.94;71.29;102134.25;4936715;29;20107;-66
2021/07/21 01:25:09;;;;;;;19.00;12.43;;;20.40;99.90;;;20.92;71.55;102130.72;4936982;29;20050;-67
2021/07/21 01:28:02;;;;;;;17.85;12.23;;;20.40;99.90;;;20.39;71.69;102048.75;4936358;29;20079;-67
2021/07/21 01:30:40;;;;;;;14.45;12.55;;;20.40;99.90;;;20.97;72.07;102131.47;4919797;29;20059;-67
2021/07/21 01:33:13;;;;;;;27.15;14.75;;;20.40;99.90;;;21.01;72.63;102133.19;4919469;29;20051;-66
2021/07/21 01:35:54;;;;;;;18.10;13.18;;;20.50;99.90;;;21.05;71.96;102121.41;4919715;29;20047;-66
2021/07/21 01:38:31;;;;;;;23.17;16.00;;;20.50;99.90;;;21.01;71.42;102124.22;4919690;29;20084;-66
2021/07/21 01:41:12;;;;;;;24.85;17.45;;;20.50;99.90;;;21.04;70.57;102140.31;4919851;29;20048;-66
2021/07/21 01:43:48;;;;;;;22.83;17.00;;;20.50;99.90;;;21.15;70.52;102131.00;4919752;29;20055;-66
2021/07/21 01:46:23;;;;;;;24.67;16.45;;;20.60;99.90;;;21.03;70.04;102093.66;4936598;29;20052;-66
2021/07/21 01:48:57;;;;;;;26.80;17.75;;;20.70;99.90;;;21.22;69.81;102131.69;4918343;29;20083;-66
2021/07/21 01:51:34;;;;;;;25.35;18.02;;;20.70;99.90;;;21.30;69.64;102129.69;4919516;29;20557;-66
2021/07/21 01:54:09;;;;;;;28.45;18.92;;;20.80;99.90;;;21.32;69.34;102134.09;4919660;29;20047;-66
2021/07/21 01:56:51;;;;;;;28.73;19.48;;;20.90;99.90;;;21.39;69.08;102132.97;4919654;29;20492;-66
2021/07/21 01:59:22;;;;;;;25.77;18.60;;;20.90;99.90;;;21.44;68.85;102132.84;4936444;29;20107;-66
2021/07/21 02:02:24;;;;;;;26.20;19.00;;;21.00;99.90;;;21.01;68.50;102063.22;4914081;29;20055;-66
2021/07/21 02:05:08;;;;;;;26.40;18.98;;;21.00;99.90;;;21.43;68.67;102141.84;4919203;29;20056;-66
2021/07/21 02:07:42;;;;;;;27.55;18.80;;;21.00;99.90;;;21.33;68.67;102135.84;4936091;29;20506;-66
2021/07/21 02:10:14;;;;;;;27.98;19.85;;;21.00;99.90;;;21.33;68.83;102135.00;4936078;29;20063;-66
2021/07/21 02:13:00;;;;;;;30.95;21.15;;;20.90;99.90;;;21.39;68.41;102140.16;4919166;29;20106;-66
2021/07/21 02:15:34;;;;;;;30.27;21.25;;;20.90;99.90;;;21.35;68.57;102136.69;4919360;29;20051;-67
2021/07/21 02:18:09;;;;;;;31.52;21.40;;;20.90;99.90;;;21.29;68.65;102139.56;4918858;29;20451;-66
2021/07/21 02:20:40;;;;;;;29.70;21.33;;;20.90;99.90;;;21.29;68.65;102150.31;4919103;29;20111;-66
2021/07/21 02:23:11;;;;;;;28.23;20.38;;;20.80;99.90;;;21.16;68.63;102123.78;4935794;29;20073;-66
2021/07/21 02:25:46;;;;;;;30.42;21.13;;;20.80;99.90;;;21.20;68.54;102136.22;4936390;29;20058;-66
2021/07/21 02:28:19;;;;;;;32.72;21.88;;;20.80;99.90;;;21.23;68.41;102134.38;4919027;29;20066;-66
2021/07/21 02:30:59;;;;;;;33.65;22.20;;;20.80;99.90;;;21.24;68.42;102138.81;4919045;29;20557;-66
2021/07/21 02:33:34;;;;;;;33.47;22.05;;;20.80;99.90;;;21.22;68.59;102143.34;4935844;29;20043;-67
2021/07/21 02:36:08;;;;;;;31.60;21.58;;;20.80;99.90;;;21.23;68.72;102150.53;4918701;29;20425;-67
2021/07/21 02:38:38;;;;;;;28.88;20.77;;;20.80;99.90;;;21.23;68.71;102147.81;4936063;29;20521;-66
2021/07/21 02:41:07;;;;;;;31.45;21.67;;;20.80;99.90;;;21.09;68.76;102151.81;4919137;29;20048;-66
2021/07/21 02:43:38;;;;;;;27.48;19.85;;;20.70;99.90;;;21.11;68.58;102147.28;4918832;29;20071;-67
2021/07/21 02:46:09;;;;;;;32.00;21.52;;;20.60;99.90;;;21.01;68.82;102152.03;4935909;29;20059;-66
2021/07/21 02:48:43;;;;;;;30.48;20.98;;;20.60;99.90;;;20.39;68.70;102047.88;4918933;29;20111;-67
2021/07/21 02:51:26;;;;;;;30.95;20.90;;;20.40;99.90;;;20.99;69.09;102153.84;4935949;29;20051;-66
2021/07/21 02:54:13;;;;;;;28.70;19.92;;;20.40;99.90;;;21.10;68.92;102154.44;4918828;29;20055;-66
2021/07/21 02:56:57;;;;;;;28.60;20.83;;;20.60;99.90;;;21.15;69.64;102155.22;4918715;29;20422;-66
2021/07/21 02:59:42;;;;;;;26.65;19.08;;;20.60;99.90;;;21.00;70.89;102152.91;4920364;29;20056;-66
2021/07/21 03:02:15;;;;;;;24.75;18.70;;;20.50;99.90;;;20.84;70.68;102150.66;4922507;29;20098;-66
2021/07/21 03:04:46;;;;;;;23.73;17.45;;;20.40;99.90;;;20.76;70.94;102147.28;4922196;29;20048;-66
2021/07/21 03:07:30;;;;;;;23.45;17.17;;;20.30;99.90;;;20.68;71.64;102153.75;4922403;29;20143;-67
2021/07/21 03:10:06;;;;;;;21.67;15.48;;;20.20;99.90;;;20.67;72.43;102157.34;4939361;29;20051;-66
2021/07/21 03:12:51;;;;;;;22.40;15.45;;;20.20;99.90;;;20.16;72.78;102088.72;4939376;29;20039;-66
2021/07/21 03:15:38;;;;;;;23.23;16.67;;;20.10;99.90;;;20.44;72.62;102154.34;4922255;29;20044;-66
2021/07/21 03:18:13;;;;;;;18.80;14.70;;;20.00;99.90;;;20.32;72.23;102160.06;4921762;29;20051;-66
2021/07/21 03:20:48;;;;;;;16.65;12.68;;;19.90;99.90;;;20.24;72.70;102162.03;4922149;29;20099;-66
2021/07/21 03:23:20;;;;;;;17.75;13.52;;;19.80;99.90;;;20.18;73.00;102156.78;4922116;29;20075;-66
2021/07/21 03:26:05;;;;;;;15.07;12.18;;;19.60;99.90;;;20.26;74.08;102160.19;4939349;29;20122;-66
2021/07/21 03:28:42;;;;;;;17.40;13.10;;;19.70;99.90;;;20.28;74.21;102165.53;4922024;29;20044;-66
2021/07/21 03:31:12;;;;;;;15.60;12.35;;;19.80;99.90;;;20.15;73.46;102159.50;4921943;29;20044;-66
2021/07/21 03:33:45;;;;;;;18.00;13.20;;;19.70;99.90;;;20.08;74.01;102162.38;4921742;29;20409;-66
2021/07/21 03:36:19;;;;;;;19.77;14.95;;;19.60;99.90;;;20.16;74.49;102163.09;4921917;29;20056;-66
2021/07/21 03:39:10;;;;;;;16.23;12.50;;;19.60;99.90;;;20.13;74.20;102165.84;4938257;29;20063;-66
2021/07/21 03:41:56;;;;;;;15.38;11.88;;;19.70;99.90;;;20.21;74.34;102164.78;4921496;29;20134;-67
2021/07/21 03:44:26;;;;;;;17.63;13.13;;;19.70;99.90;;;20.20;74.30;102165.72;4938750;29;20071;-66
2021/07/21 03:46:59;;;;;;;16.40;12.40;;;19.70;99.90;;;20.09;74.15;102161.47;4921676;29;20116;-66
2021/07/21 03:49:33;;;;;;;20.30;13.87;;;19.60;99.90;;;20.04;73.94;102163.34;4938650;29;20090;-66
2021/07/21 03:52:10;;;;;;;18.30;14.35;;;19.60;99.90;;;19.97;73.54;102162.63;4921592;29;20075;-66
2021/07/21 03:54:41;;;;;;;19.88;14.43;;;19.50;99.90;;;19.86;73.35;102159.28;4938938;29;20059;-66
2021/07/21 03:57:26;;;;;;;20.33;14.40;;;19.40;99.90;;;19.75;73.68;102161.31;4921243;29;20058;-66
2021/07/21 03:59:56;;;;;;;20.15;12.75;;;19.30;99.90;;;19.79;74.01;102166.59;4921428;29;20138;-66
2021/07/21 04:02:26;;;;;;;14.35;10.95;;;19.30;99.90;;;19.84;74.55;102162.94;4938301;29;20051;-66
2021/07/21 04:04:59;;;;;;;19.05;13.23;;;19.30;99.90;;;19.80;74.91;102148.69;4921305;29;20150;-66
2021/07/21 04:07:29;;;;;;;18.13;13.70;;;19.30;99.90;;;19.82;75.19;102152.22;4921359;29;20520;-66
2021/07/21 04:10:09;;;;;;;21.88;15.63;;;19.40;99.90;;;19.76;74.55;102157.72;4920796;29;20099;-66
2021/07/21 04:12:51;;;;;;;31.92;20.65;;;19.30;99.90;;;19.62;73.92;102151.75;4938290;29;20043;-66
2021/07/21 04:15:24;;;;;;;30.95;21.75;;;19.20;99.90;;;19.63;73.92;102153.50;4921409;29;20048;-66
2021/07/21 04:18:02;;;;;;;19.48;14.63;;;19.20;99.90;;;19.65;74.38;102152.56;4921008;29;20074;-67
2021/07/21 04:20:36;;;;;;;;;;;19.20;99.90;;;19.52;74.23;102152.88;4921514;29;20055;-67
2021/07/21 04:23:08;;;;;;;12.27;9.75;;;19.10;99.90;;;19.55;74.68;102150.13;4938453;29;19974;-67
2021/07/21 04:25:37;;;;;;;12.38;9.85;;;19.10;99.90;;;19.61;74.17;102163.41;4920854;29;20044;-68
2021/07/21 04:28:09;;;;;;;17.15;13.27;;;19.10;99.90;;;19.60;73.41;102156.28;4920908;29;20079;-68
2021/07/21 04:30:56;;;;;;;13.45;9.57;;;19.20;99.90;;;19.59;72.86;102158.06;4920912;29;20111;-68
2021/07/21 04:33:26;;;;;;;7.38;6.60;;;19.20;99.90;;;19.53;72.50;102157.34;4937677;29;20094;-68
2021/07/21 04:35:56;;;;;;;11.38;9.00;;;19.10;99.90;;;19.53;72.46;102155.50;4937823;29;20047;-68
2021/07/21 04:38:25;;;;;;;11.13;8.52;;;19.10;99.90;;;19.49;72.22;102155.63;4921036;29;20059;-68
2021/07/21 04:41:07;;;;;;;13.63;9.40;;;19.00;99.90;;;19.48;72.14;102161.91;4938003;29;20052;-67
2021/07/21 04:43:59;;;;;;;28.30;9.73;;;19.00;99.90;;;19.18;72.27;102128.47;4932310;29;20398;-68
2021/07/21 04:46:36;;;;;;;20.00;13.65;;;18.90;99.90;;;19.42;72.82;102156.66;4937701;29;20062;-68
2021/07/21 04:49:11;;;;;;;15.80;11.02;;;18.90;99.90;;;19.51;73.61;102169.91;4920598;29;20382;-68
2021/07/21 04:51:43;;;;;;;12.95;9.75;;;18.90;99.90;;;19.62;74.34;102160.72;4920792;29;20058;-68
2021/07/21 04:54:22;;;;;;;27.35;18.10;;;19.10;99.90;;;19.64;73.19;102164.25;4920726;29;20052;-68
2021/07/21 04:56:55;;;;;;;27.45;17.55;;;19.20;99.90;;;19.61;73.16;102169.66;4937449;29;20111;-68
2021/07/21 04:59:33;;;;;;;21.33;14.45;;;19.20;99.90;;;19.69;74.10;102177.56;4920348;29;20138;-68
2021/07/21 05:02:04;;;;;;;15.75;11.30;;;19.20;99.90;;;19.82;74.61;102184.47;4937395;29;20099;-68
2021/07/21 05:04:35;;;;;;;12.63;9.73;;;19.30;99.90;;;19.96;75.11;102187.72;4920006;29;20051;-68
2021/07/21 05:07:18;;;;;;;14.48;9.73;;;19.40;99.90;;;20.01;75.52;102185.81;4920260;29;20087;-68
2021/07/21 05:09:50;;;;;;;14.52;10.82;;;19.50;99.90;;;20.05;75.48;102187.53;4920131;29;20150;-68
2021/07/21 05:12:20;;;;;;;16.30;11.27;;;19.50;99.90;;;20.15;75.15;102194.44;4937155;29;20059;-68
2021/07/21 05:14:55;;;;;;;14.10;10.40;;;19.60;99.90;;;20.25;75.00;102196.03;4936883;29;20130;-68
2021/07/21 05:17:35;;;;;;;16.27;11.80;;;19.70;99.90;;;20.32;74.92;102192.31;4936834;29;20103;-68
2021/07/21 05:20:10;;;;;;;16.17;12.23;;;19.80;99.90;;;20.28;74.75;102179.84;4920288;29;20060;-68
2021/07/21 05:22:55;;;;;;;19.42;13.88;;;19.90;99.90;;;20.44;75.38;102220.69;4919897;29;20048;-68
2021/07/21 05:25:27;;;;;;;25.63;16.88;;;20.00;99.90;;;20.53;75.27;102210.63;4919785;29;20138;-68
2021/07/21 05:28:25;;;;;;;25.13;17.35;;;20.00;99.90;;;20.49;74.69;102195.47;4928822;29;20051;-68
2021/07/21 05:30:57;;;;;;;26.67;20.27;;;20.10;99.90;;;20.75;73.60;102210.09;4919703;29;20126;-68
2021/07/21 05:33:27;;;;;;;33.38;20.33;;;20.30;99.90;;;20.82;73.05;102209.00;4919611;29;20472;-68
2021/07/21 05:35:56;;;;;;;24.67;16.85;;;20.40;99.90;;;21.03;73.97;102214.75;4920059;29;20065;-68
2021/07/21 05:38:28;;;;;;;28.25;19.27;;;20.60;99.90;;;21.00;75.10;102213.91;4919747;29;20059;-68
2021/07/21 05:40:56;;;;;;;28.40;20.53;;;20.60;99.90;;;21.08;74.95;102222.72;4919519;29;20510;-68
2021/07/21 05:43:37;;;;;;;27.05;18.98;;;20.60;99.90;;;21.29;74.61;102223.00;4919321;29;20044;-68
2021/07/21 05:46:08;;;;;;;35.17;23.65;;;20.80;99.90;;;21.21;72.41;102225.03;4936500;29;20439;-68
2021/07/21 05:48:40;;;;;;;30.58;21.05;;;20.80;99.90;;;21.11;72.04;102228.00;4936669;29;20043;-68
2021/07/21 05:51:20;;;;;;;29.48;21.67;;;20.70;99.90;;;21.03;71.22;102227.31;4936565;29;20047;-68
2021/07/21 05:53:55;;;;;;;32.25;23.42;;;20.60;99.90;;;20.77;71.28;102222.56;4919596;29;20118;-68
2021/07/21 05:56:26;;;;;;;33.03;23.38;;;20.40;99.90;;;20.53;71.85;102229.44;4919629;29;20086;-68
2021/07/21 05:59:00;;;;;;;34.90;22.58;;;20.10;99.90;;;20.81;71.85;102236.84;4919377;29;20086;-68
2021/07/21 06:01:33;;;;;;;32.55;22.90;;;20.30;99.90;;;20.88;69.98;102230.38;4919276;29;20066;-68
2021/07/21 06:04:05;;;;;;;36.80;24.05;;;20.40;99.90;;;20.87;70.19;102225.91;4918947;29;20043;-68
2021/07/21 06:06:54;;;;;;;33.63;23.40;;;20.40;99.90;;;20.92;69.86;102224.88;4935846;29;20075;-68
2021/07/21 06:10:04;;;;;;;35.63;23.35;;;20.40;99.90;;;20.87;69.60;102225.91;4896004;29;20522;-68
2021/07/21 06:12:44;;;;;;;34.90;23.42;;;20.40;99.90;;;20.87;69.58;102228.59;4880497;29;20080;-68
2021/07/21 06:15:13;;;;;;;41.47;23.35;;;20.40;99.90;;;20.87;69.48;102236.66;4910583;29;20519;-68
2021/07/21 06:17:44;;;;;;;38.28;24.88;;;20.40;99.90;;;20.96;68.05;102236.44;4918372;29;20150;-67
2021/07/21 06:20:14;;;;;;;40.00;24.10;;;20.50;99.90;;;21.09;68.06;102235.22;4918986;29;20055;-68
2021/07/21 06:22:48;;;;;;;43.78;25.02;;;20.60;99.90;;;21.13;68.24;102243.19;4918957;29;20051;-68
2021/07/21 06:25:25;;;;;;;36.05;24.50;;;20.70;99.90;;;21.19;68.18;102242.16;4918931;29;20142;-68
2021/07/21 06:28:08;;;;;;;37.55;24.17;;;20.70;99.90;;;21.43;67.99;102250.44;4936384;29;20065;-68
2021/07/21 06:30:40;;;;;;;33.83;24.60;;;20.90;99.90;;;21.69;67.81;102249.75;4918955;29;20099;-68
2021/07/21 06:33:19;;;;;;;32.17;22.95;;;21.20;99.90;;;21.45;66.51;102245.91;4918689;29;20048;-68
2021/07/21 06:35:50;;;;;;;36.75;24.95;;;21.10;99.90;;;21.23;67.20;102246.53;4922802;29;20056;-68
2021/07/21 06:38:23;;;;;;;32.63;23.98;;;20.90;99.90;;;21.56;67.31;102257.25;4922785;29;20055;-68
2021/07/21 06:41:16;;;;;;;32.05;24.25;;;21.00;99.90;;;21.72;67.52;102257.72;4931916;29;20048;-68
2021/07/21 06:43:45;;;;;;;34.90;23.65;;;21.20;99.90;;;21.76;66.72;102256.72;4939940;29;20074;-68
2021/07/21 06:46:26;;;;;;;37.63;24.92;;;21.30;99.90;;;21.94;66.37;102267.00;4922509;29;20043;-63
2021/07/21 06:49:11;;;;;;;35.22;21.35;;;21.40;99.90;;;22.02;63.35;102267.66;4922782;29;20472;-61
2021/07/21 06:51:43;;;;;;;34.83;20.98;;;21.50;99.90;;;21.93;63.61;102264.34;4939713;29;20091;-62
2021/07/21 06:54:18;;;;;;;30.60;21.25;;;21.50;99.90;;;21.77;64.07;102277.34;4922631;29;20489;-61
2021/07/21 06:57:07;;;;;;;34.20;20.65;;;21.40;99.90;;;21.92;64.84;102279.63;4939390;29;20055;-61
2021/07/21 06:59:58;;;;;;;32.88;20.52;;;21.40;99.90;;;22.07;65.54;102278.28;4920624;29;20048;-61
2021/07/21 07:02:56;;;;;;;27.20;19.15;;;21.60;99.90;;;21.88;64.50;102269.88;4887255;29;20097;-61
2021/07/21 07:05:48;;;;;;;28.42;18.63;;;21.50;99.90;;;21.90;63.73;102259.94;4920583;29;20146;-61
2021/07/21 07:08:25;;;;;;;26.45;17.13;;;21.60;99.90;;;22.03;61.77;102277.50;4939510;29;20462;-63
2021/07/21 07:11:26;;;;;;;25.45;18.27;;;21.60;99.90;;;22.03;61.60;102277.50;4938481;29;20040;-63
2021/07/21 07:13:56;;;;;;;24.90;16.70;;;21.60;99.90;;;22.35;61.56;102285.53;4939333;29;20067;-63
2021/07/21 07:16:24;;;;;;;26.67;16.85;;;21.90;99.90;;;22.36;62.28;102281.91;4939331;29;20052;-63
2021/07/21 07:18:53;;;;;;;17.08;13.13;;;21.90;99.90;;;22.37;57.28;102283.69;4939107;29;20051;-63
2021/07/21 07:21:22;;;;;;;19.95;13.15;;;22.00;99.90;;;22.02;57.77;102277.56;4939038;29;20095;-62
2021/07/21 07:23:53;;;;;;;;;;;21.70;99.90;;;22.49;59.26;102279.72;4922520;29;20598;-63
2021/07/21 07:26:22;;;;;;;27.13;15.00;;;22.00;99.90;;;22.66;58.34;102284.59;4939259;29;20332;-63
2021/07/21 07:28:51;;;;;;;19.17;11.98;;;22.30;99.90;;;22.57;56.45;102290.31;4921813;29;20548;-67
2021/07/21 07:31:21;;;;;;;17.17;11.73;;;22.20;99.90;;;22.62;55.94;102281.13;4938898;29;20048;-67
2021/07/21 07:33:49;;;;;;;15.05;10.23;;;22.30;99.90;;;22.91;54.28;102299.06;4938951;29;20051;-67
2021/07/21 07:36:18;;;;;;;15.32;10.52;;;22.50;99.90;;;22.89;54.29;102299.13;4938726;29;20044;-67
2021/07/21 07:38:46;;;;;;;18.80;10.93;;;22.60;99.90;;;22.67;52.74;102289.94;4938784;29;20055;-67
2021/07/21 07:41:15;;;;;;;13.27;10.07;;;22.40;99.90;;;22.89;52.80;102293.75;4938834;29;20047;-67
2021/07/21 07:43:43;;;;;;;14.75;9.68;;;22.40;99.90;;;22.98;51.47;102300.63;4938744;29;20059;-67
2021/07/21 07:46:12;;;;;;;16.35;10.75;;;22.60;99.90;;;23.10;53.22;102301.13;4937337;29;20410;-67
2021/07/21 07:48:42;;;;;;;15.82;10.02;;;22.80;99.90;;;23.38;51.93;102305.63;4938432;29;20043;-67
2021/07/21 07:51:11;;;;;;;17.15;10.50;;;22.90;99.90;;;23.53;51.56;102300.56;4921559;29;20079;-67
2021/07/21 07:53:39;;;;;;;15.73;11.05;;;23.20;99.90;;;23.55;50.70;102296.00;4938518;29;20094;-67
2021/07/21 07:56:08;;;;;;;15.52;9.90;;;23.20;99.90;;;23.63;48.54;102299.31;4921463;29;20048;-67
2021/07/21 07:58:37;;;;;;;14.93;9.82;;;23.30;99.90;;;23.59;49.10;102303.06;4938785;29;20442;-67
2021/07/21 08:01:05;;;;;;;14.07;9.55;;;23.10;99.90;;;23.80;48.82;102307.69;4938399;29;20095;-67
2021/07/21 08:03:34;;;;;;;13.35;10.13;;;23.40;99.90;;;23.97;48.17;102310.66;4921316;29;20055;-67
2021/07/21 08:06:04;;;;;;;9.93;8.88;;;23.60;99.90;;;23.98;48.02;102300.75;4938342;29;20446;-67
2021/07/21 08:08:33;;;;;;;11.73;9.35;;;23.70;99.90;;;24.33;49.61;102302.16;4938334;29;20044;-67
2021/07/21 08:11:01;;;;;;;17.40;9.60;;;23.90;99.90;;;24.43;46.87;102300.84;4938207;29;20060;-67
2021/07/21 08:13:30;;;;;;;16.70;10.77;;;24.20;99.90;;;24.27;46.72;102307.78;4938177;29;20048;-67
2021/07/21 08:15:59;;;;;;;13.05;10.45;;;24.00;99.90;;;24.31;46.87;102304.03;4938220;29;20050;-67
2021/07/21 08:18:28;;;;;;;14.13;10.15;;;24.00;99.90;;;24.47;46.67;102307.88;4937903;29;20115;-68
2021/07/21 08:20:57;;;;;;;14.48;10.07;;;24.20;99.90;;;24.48;46.95;102302.44;4938083;29;20056;-68
2021/07/21 08:23:27;;;;;;;14.70;9.85;;;24.10;99.90;;;24.59;46.43;102310.13;4920865;29;20058;-68
2021/07/21 08:25:56;;;;;;;15.30;10.48;;;24.30;99.90;;;24.68;46.86;102307.06;4938218;29;20043;-68
2021/07/21 08:28:24;;;;;;;15.13;10.20;;;24.30;99.90;;;24.87;46.13;102305.41;4921135;29;20122;-68
2021/07/21 08:30:53;;;;;;;16.30;10.48;;;24.50;99.90;;;25.00;45.82;102314.78;4938300;29;20051;-68
2021/07/21 08:33:22;;;;;;;13.25;9.02;;;24.70;99.90;;;25.19;46.64;102313.06;4937844;29;20051;-67
2021/07/21 08:35:50;;;;;;;17.48;10.27;;;24.90;99.90;;;25.29;46.99;102316.28;4937798;29;20051;-67
2021/07/21 08:38:19;;;;;;;15.88;9.80;;;25.00;99.90;;;25.31;45.55;102317.97;4937727;29;20549;-68
2021/07/21 08:40:49;;;;;;;15.07;10.13;;;25.00;99.90;;;25.46;44.88;102321.88;4937418;29;20048;-67
2021/07/21 08:43:27;;;;;;;12.30;9.43;;;25.20;99.90;;;25.57;45.26;102325.03;4937359;29;20083;-68
2021/07/21 08:45:59;;;;;;;12.93;8.73;;;25.30;99.90;;;25.60;44.87;102325.78;4937844;29;20071;-67
2021/07/21 08:48:28;;;;;;;11.77;9.20;;;25.30;99.90;;;25.84;44.34;102329.25;4937427;29;20135;-67
2021/07/21 08:50:59;;;;;;;13.63;10.55;;;25.50;99.90;;;26.01;44.70;102304.06;4937618;29;20657;-68
2021/07/21 08:53:28;;;;;;;18.15;9.32;;;25.70;99.90;;;25.81;43.71;102265.16;4937522;29;20056;-67
2021/07/21 08:55:58;;;;;;;16.02;10.85;;;25.90;99.90;;;26.33;44.72;102317.03;4937404;29;20052;-68
2021/07/21 08:58:27;;;;;;;21.27;10.23;;;26.00;99.90;;;26.50;43.23;102328.03;4919932;29;20048;-68
2021/07/21 09:00:57;;;;;;;13.57;9.75;;;26.20;99.90;;;26.42;43.05;102305.78;4937371;29;20048;-68
2021/07/21 09:03:26;;;;;;;13.02;10.05;;;26.30;99.90;;;26.74;42.67;102327.75;4937424;29;20102;-68
2021/07/21 09:05:55;;;;;;;13.13;10.25;;;26.40;99.90;;;26.57;42.54;102334.91;4937189;29;20094;-68
2021/07/21 09:08:24;;;;;;;15.55;10.68;;;26.30;99.90;;;26.60;43.04;102332.03;4937520;29;20047;-68
2021/07/21 09:10:52;;;;;;;13.68;10.00;;;26.20;99.90;;;26.52;42.11;102336.94;4937183;29;20110;-68
2021/07/21 09:13:24;;;;;;;13.07;10.52;;;26.10;99.90;;;25.72;43.26;102335.19;4936865;29;20048;-68
2021/07/21 09:15:53;;;;;;;15.38;10.65;;;25.60;99.90;;;26.20;43.27;102326.72;4937124;29;20051;-68
2021/07/21 09:18:23;;;;;;;15.65;10.65;;;25.80;99.90;;;26.20;43.99;102341.19;4936786;29;20047;-68
2021/07/21 09:21:08;;;;;;;17.00;11.32;;;25.80;99.90;;;26.12;43.53;102308.09;4937346;29;20118;-68
2021/07/21 09:23:37;;;;;;;21.95;11.25;;;25.90;99.90;;;26.28;42.46;102332.69;4936972;29;20056;-68
2021/07/21 09:26:08;;;;;;;15.20;11.10;;;26.00;99.90;;;26.28;43.88;102335.38;4936891;29;20079;-68
2021/07/21 09:28:40;;;;;;;17.90;12.07;;;25.90;99.90;;;26.27;43.32;102339.03;4919869;29;20055;-68
2021/07/21 09:31:13;;;;;;;14.80;11.25;;;25.90;99.90;;;26.30;42.30;102319.91;4936645;29;20458;-67
2021/07/21 09:33:44;;;;;;;17.33;11.50;;;26.00;99.90;;;26.72;42.75;102337.81;4936934;29;20047;-68
2021/07/21 09:36:20;;;;;;;16.60;10.77;;;26.30;99.90;;;27.02;42.23;102327.28;4936612;29;20036;-68
2021/07/21 09:39:01;;;;;;;16.10;11.60;;;26.70;99.90;;;27.22;41.13;102338.03;4936403;29;20486;-68
2021/07/21 09:41:30;;;;;;;16.92;11.85;;;26.90;99.90;;;27.34;41.64;102337.44;4936459;29;20131;-67
2021/07/21 09:44:04;;;;;;;18.40;12.77;;;27.10;99.90;;;27.36;40.43;102334.66;4936577;29;20082;-68
2021/07/21 09:46:38;;;;;;;18.20;12.43;;;27.10;99.90;;;27.45;41.04;102339.59;4919361;29;20130;-68
2021/07/21 09:49:20;;;;;;;17.45;12.02;;;27.10;99.90;;;27.61;40.90;102333.31;4936678;29;20051;-68
2021/07/21 09:51:51;;;;;;;14.25;11.60;;;27.30;99.90;;;27.85;41.46;102331.16;4936562;29;20040;-68
2021/07/21 09:54:21;;;;;;;15.82;12.00;;;27.50;99.90;;;28.06;42.29;102335.47;4936537;29;20071;-67
2021/07/21 09:56:50;;;;;;;16.25;12.00;;;27.80;99.90;;;28.02;40.23;102319.38;4919296;29;20107;-68
2021/07/21 09:59:22;;;;;;;15.18;11.25;;;27.90;99.90;;;28.15;40.83;102317.75;4936279;29;20406;-68
2021/07/21 10:01:51;;;;;;;17.80;12.20;;;28.00;99.90;;;28.46;40.05;102329.59;4918843;29;20093;-68
2021/07/21 10:04:36;;;;;;;18.38;11.88;;;28.20;99.90;;;28.39;40.93;102332.75;4935947;29;20458;-68
2021/07/21 10:07:17;;;;;;;16.50;10.80;;;28.20;99.90;;;28.46;41.40;102337.78;4935514;29;20043;-68
2021/07/21 10:09:46;;;;;;;14.82;10.68;;;28.20;99.90;;;28.61;40.59;102330.59;4935459;29;20095;-68
2021/07/21 10:12:16;;;;;;;15.75;12.13;;;28.40;99.90;;;28.67;40.39;102343.03;4936113;29;20127;-68
2021/07/21 10:14:59;;;;;;;18.50;12.10;;;28.40;99.90;;;28.72;41.14;102338.19;4935945;29;20048;-68
2021/07/21 10:17:30;;;;;;;22.67;12.80;;;28.40;99.90;;;28.83;40.38;102339.34;4936235;29;20040;-68
2021/07/21 10:19:59;;;;;;;15.35;11.60;;;28.50;99.90;;;28.89;40.61;102341.72;4936444;29;20055;-68
2021/07/21 10:22:28;;;;;;;14.82;11.25;;;28.60;99.90;;;29.04;39.48;102338.09;4936077;29;20515;-68
2021/07/21 10:24:57;;;;;;;16.42;12.10;;;28.70;99.90;;;29.09;38.15;102341.41;4936266;29;20052;-68
2021/07/21 10:27:25;;;;;;;16.77;11.95;;;28.90;99.90;;;28.63;38.11;102336.84;4918900;29;20052;-68
2021/07/21 10:29:57;;;;;;;13.93;11.15;;;28.40;99.90;;;28.80;40.97;102330.47;4935897;29;20056;-68